sensor_id;sensor_type;location;lat;lon;timestamp;temperature;humidity
3699;DHT22;1865;50.918;7.092;2023-03-23T00:00:52;17.80;44.00
3699;DHT22;1865;50.918;7.092;2023-03-23T00:03:19;17.80;43.90
3699;DHT22;1865;50.918;7.092;2023-03-23T00:05:47;17.80;43.90
3699;DHT22;1865;50.918;7.092;2023-03-23T00:08:17;17.70;44.20
3699;DHT22;1865;50.918;7.092;2023-03-23T00:10:42;17.80;44.00
3699;DHT22;1865;50.918;7.092;2023-03-23T00:13:08;17.80;44.10
3699;DHT22;1865;50.918;7.092;2023-03-23T00:15:33;17.80;44.00
3699;DHT22;1865;50.918;7.092;2023-03-23T00:18:01;17.80;44.40
3699;DHT22;1865;50.918;7.092;2023-03-23T00:20:30;17.70;44.00
3699;DHT22;1865;50.918;7.092;2023-03-23T00:23:02;17.80;44.40
3699;DHT22;1865;50.918;7.092;2023-03-23T00:25:29;17.70;44.50
3699;DHT22;1865;50.918;7.092;2023-03-23T00:27:55;17.70;44.30
3699;DHT22;1865;50.918;7.092;2023-03-23T00:30:21;17.60;44.70
3699;DHT22;1865;50.918;7.092;2023-03-23T00:32:47;17.70;44.60
3699;DHT22;1865;50.918;7.092;2023-03-23T00:35:13;17.70;44.50
3699;DHT22;1865;50.918;7.092;2023-03-23T00:37:39;17.70;44.40
3699;DHT22;1865;50.918;7.092;2023-03-23T00:40:05;17.70;44.60
3699;DHT22;1865;50.918;7.092;2023-03-23T00:42:34;17.70;44.70
3699;DHT22;1865;50.918;7.092;2023-03-23T00:45:03;17.70;44.80
3699;DHT22;1865;50.918;7.092;2023-03-23T00:47:36;17.70;45.10
3699;DHT22;1865;50.918;7.092;2023-03-23T00:50:03;17.60;45.00
3699;DHT22;1865;50.918;7.092;2023-03-23T00:52:30;17.50;45.50
3699;DHT22;1865;50.918;7.092;2023-03-23T00:54:56;17.50;45.60
3699;DHT22;1865;50.918;7.092;2023-03-23T00:57:21;17.60;45.10
3699;DHT22;1865;50.918;7.092;2023-03-23T00:59:50;17.60;45.30
3699;DHT22;1865;50.918;7.092;2023-03-23T01:02:16;17.80;44.90
3699;DHT22;1865;50.918;7.092;2023-03-23T01:04:41;17.70;45.10
3699;DHT22;1865;50.918;7.092;2023-03-23T01:07:10;17.80;44.70
3699;DHT22;1865;50.918;7.092;2023-03-23T01:09:38;17.80;44.60
3699;DHT22;1865;50.918;7.092;2023-03-23T01:12:10;17.80;45.00
3699;DHT22;1865;50.918;7.092;2023-03-23T01:14:36;17.80;45.10
3699;DHT22;1865;50.918;7.092;2023-03-23T01:17:02;17.70;45.30
3699;DHT22;1865;50.918;7.092;2023-03-23T01:19:27;17.80;45.80
3699;DHT22;1865;50.918;7.092;2023-03-23T01:21:53;17.70;46.20
3699;DHT22;1865;50.918;7.092;2023-03-23T01:24:18;17.70;46.60
3699;DHT22;1865;50.918;7.092;2023-03-23T01:26:44;17.60;47.20
3699;DHT22;1865;50.918;7.092;2023-03-23T01:29:10;17.50;47.70
3699;DHT22;1865;50.918;7.092;2023-03-23T01:31:36;17.50;47.90
3699;DHT22;1865;50.918;7.092;2023-03-23T01:34:04;17.40;47.50
3699;DHT22;1865;50.918;7.092;2023-03-23T01:36:30;17.40;47.50
3699;DHT22;1865;50.918;7.092;2023-03-23T01:38:59;17.40;47.70
3699;DHT22;1865;50.918;7.092;2023-03-23T01:41:26;17.40;48.00
3699;DHT22;1865;50.918;7.092;2023-03-23T01:43:58;17.30;48.40
3699;DHT22;1865;50.918;7.092;2023-03-23T01:46:28;17.20;47.70
3699;DHT22;1865;50.918;7.092;2023-03-23T01:48:56;17.20;48.00
3699;DHT22;1865;50.918;7.092;2023-03-23T01:51:24;17.30;48.00
3699;DHT22;1865;50.918;7.092;2023-03-23T01:53:58;17.30;47.90
3699;DHT22;1865;50.918;7.092;2023-03-23T01:56:28;17.40;48.30
3699;DHT22;1865;50.918;7.092;2023-03-23T01:58:58;17.30;48.80
3699;DHT22;1865;50.918;7.092;2023-03-23T02:01:23;17.10;49.70
3699;DHT22;1865;50.918;7.092;2023-03-23T02:03:54;17.00;50.30
3699;DHT22;1865;50.918;7.092;2023-03-23T02:06:20;17.10;50.60
3699;DHT22;1865;50.918;7.092;2023-03-23T02:08:48;17.00;50.70
3699;DHT22;1865;50.918;7.092;2023-03-23T02:11:16;16.90;50.90
3699;DHT22;1865;50.918;7.092;2023-03-23T02:13:42;16.80;51.00
3699;DHT22;1865;50.918;7.092;2023-03-23T02:16:34;16.80;51.30
3699;DHT22;1865;50.918;7.092;2023-03-23T02:28:26;16.80;51.00
3699;DHT22;1865;50.918;7.092;2023-03-23T02:31:17;16.80;51.60
3699;DHT22;1865;50.918;7.092;2023-03-23T02:37:03;16.70;52.10
3699;DHT22;1865;50.918;7.092;2023-03-23T02:39:47;16.60;52.80
3699;DHT22;1865;50.918;7.092;2023-03-23T02:42:22;16.60;52.60
3699;DHT22;1865;50.918;7.092;2023-03-23T02:44:50;16.60;52.60
3699;DHT22;1865;50.918;7.092;2023-03-23T02:47:23;16.50;52.60
3699;DHT22;1865;50.918;7.092;2023-03-23T02:49:52;16.40;53.00
3699;DHT22;1865;50.918;7.092;2023-03-23T02:52:22;16.50;53.70
3699;DHT22;1865;50.918;7.092;2023-03-23T02:54:49;16.50;53.40
3699;DHT22;1865;50.918;7.092;2023-03-23T02:57:16;16.50;52.00
3699;DHT22;1865;50.918;7.092;2023-03-23T02:59:42;16.50;51.50
3699;DHT22;1865;50.918;7.092;2023-03-23T03:02:14;16.50;51.60
3699;DHT22;1865;50.918;7.092;2023-03-23T03:04:53;16.50;51.10
3699;DHT22;1865;50.918;7.092;2023-03-23T03:09:58;16.50;50.90
3699;DHT22;1865;50.918;7.092;2023-03-23T03:12:34;16.40;50.70
3699;DHT22;1865;50.918;7.092;2023-03-23T03:15:13;16.50;50.80
3699;DHT22;1865;50.918;7.092;2023-03-23T03:17:46;16.40;50.50
3699;DHT22;1865;50.918;7.092;2023-03-23T03:20:14;16.50;50.90
3699;DHT22;1865;50.918;7.092;2023-03-23T03:22:41;16.50;50.10
3699;DHT22;1865;50.918;7.092;2023-03-23T03:25:10;16.50;50.30
3699;DHT22;1865;50.918;7.092;2023-03-23T03:27:39;16.60;50.00
3699;DHT22;1865;50.918;7.092;2023-03-23T03:30:09;16.60;50.00
3699;DHT22;1865;50.918;7.092;2023-03-23T03:32:43;16.70;49.90
3699;DHT22;1865;50.918;7.092;2023-03-23T03:35:09;16.80;49.40
3699;DHT22;1865;50.918;7.092;2023-03-23T03:37:36;16.60;49.30
3699;DHT22;1865;50.918;7.092;2023-03-23T03:40:05;16.50;50.40
3699;DHT22;1865;50.918;7.092;2023-03-23T03:42:37;16.50;50.20
3699;DHT22;1865;50.918;7.092;2023-03-23T03:45:02;16.40;50.50
3699;DHT22;1865;50.918;7.092;2023-03-23T03:47:28;16.50;50.80
3699;DHT22;1865;50.918;7.092;2023-03-23T03:49:53;16.50;50.50
3699;DHT22;1865;50.918;7.092;2023-03-23T03:52:19;16.50;50.60
3699;DHT22;1865;50.918;7.092;2023-03-23T03:54:45;16.40;50.50
3699;DHT22;1865;50.918;7.092;2023-03-23T03:57:11;16.50;50.40
3699;DHT22;1865;50.918;7.092;2023-03-23T03:59:37;16.40;50.50
3699;DHT22;1865;50.918;7.092;2023-03-23T04:02:02;16.40;50.60
3699;DHT22;1865;50.918;7.092;2023-03-23T04:04:29;16.40;50.80
3699;DHT22;1865;50.918;7.092;2023-03-23T04:06:54;16.50;50.70
3699;DHT22;1865;50.918;7.092;2023-03-23T04:09:20;16.50;50.80
3699;DHT22;1865;50.918;7.092;2023-03-23T04:11:46;16.50;50.40
3699;DHT22;1865;50.918;7.092;2023-03-23T04:14:12;16.60;50.70
3699;DHT22;1865;50.918;7.092;2023-03-23T04:16:37;16.60;50.20
3699;DHT22;1865;50.918;7.092;2023-03-23T04:19:03;16.40;51.10
3699;DHT22;1865;50.918;7.092;2023-03-23T04:21:29;16.30;51.50
3699;DHT22;1865;50.918;7.092;2023-03-23T04:23:55;16.30;51.20
3699;DHT22;1865;50.918;7.092;2023-03-23T04:26:25;16.30;51.30
3699;DHT22;1865;50.918;7.092;2023-03-23T04:28:51;16.40;50.90
3699;DHT22;1865;50.918;7.092;2023-03-23T04:31:17;16.40;51.20
3699;DHT22;1865;50.918;7.092;2023-03-23T04:33:43;16.40;51.00
3699;DHT22;1865;50.918;7.092;2023-03-23T04:36:08;16.50;50.80
3699;DHT22;1865;50.918;7.092;2023-03-23T04:38:34;16.50;50.90
3699;DHT22;1865;50.918;7.092;2023-03-23T04:41:00;16.50;50.60
3699;DHT22;1865;50.918;7.092;2023-03-23T04:43:28;16.50;50.70
3699;DHT22;1865;50.918;7.092;2023-03-23T04:45:55;16.50;50.80
3699;DHT22;1865;50.918;7.092;2023-03-23T04:48:22;16.50;51.00
3699;DHT22;1865;50.918;7.092;2023-03-23T04:50:48;16.40;50.80
3699;DHT22;1865;50.918;7.092;2023-03-23T04:53:16;16.50;51.00
3699;DHT22;1865;50.918;7.092;2023-03-23T04:55:43;16.50;50.90
3699;DHT22;1865;50.918;7.092;2023-03-23T04:58:08;16.50;51.40
3699;DHT22;1865;50.918;7.092;2023-03-23T05:00:35;16.50;51.30
3699;DHT22;1865;50.918;7.092;2023-03-23T05:03:01;16.50;51.00
3699;DHT22;1865;50.918;7.092;2023-03-23T05:05:28;16.50;51.10
3699;DHT22;1865;50.918;7.092;2023-03-23T05:07:56;16.60;50.90
3699;DHT22;1865;50.918;7.092;2023-03-23T05:10:22;16.60;51.00
3699;DHT22;1865;50.918;7.092;2023-03-23T05:12:48;16.50;51.20
3699;DHT22;1865;50.918;7.092;2023-03-23T05:15:17;16.50;50.90
3699;DHT22;1865;50.918;7.092;2023-03-23T05:17:43;16.50;50.80
3699;DHT22;1865;50.918;7.092;2023-03-23T05:20:12;16.50;51.20
3699;DHT22;1865;50.918;7.092;2023-03-23T05:22:38;16.50;51.10
3699;DHT22;1865;50.918;7.092;2023-03-23T05:25:05;16.50;51.00
3699;DHT22;1865;50.918;7.092;2023-03-23T05:27:34;16.50;51.20
3699;DHT22;1865;50.918;7.092;2023-03-23T05:30:00;16.60;51.10
3699;DHT22;1865;50.918;7.092;2023-03-23T05:32:27;16.50;51.00
3699;DHT22;1865;50.918;7.092;2023-03-23T05:34:55;16.50;51.00
3699;DHT22;1865;50.918;7.092;2023-03-23T05:37:22;16.50;51.10
3699;DHT22;1865;50.918;7.092;2023-03-23T05:39:47;16.50;51.30
3699;DHT22;1865;50.918;7.092;2023-03-23T05:42:13;16.50;51.10
3699;DHT22;1865;50.918;7.092;2023-03-23T05:44:38;16.50;50.90
3699;DHT22;1865;50.918;7.092;2023-03-23T05:47:04;16.50;51.10
3699;DHT22;1865;50.918;7.092;2023-03-23T05:49:30;16.50;51.30
3699;DHT22;1865;50.918;7.092;2023-03-23T05:51:56;16.50;51.50
3699;DHT22;1865;50.918;7.092;2023-03-23T05:54:22;16.40;51.20
3699;DHT22;1865;50.918;7.092;2023-03-23T05:56:47;16.50;51.40
3699;DHT22;1865;50.918;7.092;2023-03-23T05:59:14;16.50;51.00
3699;DHT22;1865;50.918;7.092;2023-03-23T06:01:39;16.50;51.10
3699;DHT22;1865;50.918;7.092;2023-03-23T06:04:05;16.50;51.00
3699;DHT22;1865;50.918;7.092;2023-03-23T06:06:31;16.60;50.90
3699;DHT22;1865;50.918;7.092;2023-03-23T06:08:58;16.50;50.80
3699;DHT22;1865;50.918;7.092;2023-03-23T06:11:24;16.40;50.60
3699;DHT22;1865;50.918;7.092;2023-03-23T06:13:51;16.50;50.80
3699;DHT22;1865;50.918;7.092;2023-03-23T06:16:17;16.40;50.50
3699;DHT22;1865;50.918;7.092;2023-03-23T06:18:43;16.50;50.30
3699;DHT22;1865;50.918;7.092;2023-03-23T06:21:10;16.50;49.90
3699;DHT22;1865;50.918;7.092;2023-03-23T06:23:35;16.50;49.80
3699;DHT22;1865;50.918;7.092;2023-03-23T06:26:05;16.50;50.10
3699;DHT22;1865;50.918;7.092;2023-03-23T06:28:31;16.50;49.60
3699;DHT22;1865;50.918;7.092;2023-03-23T06:31:01;16.60;49.40
3699;DHT22;1865;50.918;7.092;2023-03-23T06:33:27;16.80;49.00
3699;DHT22;1865;50.918;7.092;2023-03-23T06:35:52;16.70;48.50
3699;DHT22;1865;50.918;7.092;2023-03-23T06:38:19;16.80;48.50
3699;DHT22;1865;50.918;7.092;2023-03-23T06:40:44;16.90;48.10
3699;DHT22;1865;50.918;7.092;2023-03-23T06:43:12;16.90;48.10
3699;DHT22;1865;50.918;7.092;2023-03-23T06:45:39;17.10;47.60
3699;DHT22;1865;50.918;7.092;2023-03-23T06:48:04;17.20;47.30
3699;DHT22;1865;50.918;7.092;2023-03-23T06:50:31;17.20;46.60
3699;DHT22;1865;50.918;7.092;2023-03-23T06:52:57;17.30;46.60
3699;DHT22;1865;50.918;7.092;2023-03-23T06:55:22;17.30;46.50
3699;DHT22;1865;50.918;7.092;2023-03-23T06:57:48;17.40;46.40
3699;DHT22;1865;50.918;7.092;2023-03-23T07:00:14;17.40;45.70
3699;DHT22;1865;50.918;7.092;2023-03-23T07:02:40;17.30;45.70
3699;DHT22;1865;50.918;7.092;2023-03-23T07:05:07;17.30;46.30
3699;DHT22;1865;50.918;7.092;2023-03-23T07:07:34;17.30;45.70
3699;DHT22;1865;50.918;7.092;2023-03-23T07:10:01;17.30;45.40
3699;DHT22;1865;50.918;7.092;2023-03-23T07:12:27;17.30;45.40
3699;DHT22;1865;50.918;7.092;2023-03-23T07:14:54;17.30;45.00
3699;DHT22;1865;50.918;7.092;2023-03-23T07:17:19;17.30;45.60
3699;DHT22;1865;50.918;7.092;2023-03-23T07:19:45;17.30;45.90
3699;DHT22;1865;50.918;7.092;2023-03-23T07:22:11;17.40;45.60
3699;DHT22;1865;50.918;7.092;2023-03-23T07:24:36;17.40;45.10
3699;DHT22;1865;50.918;7.092;2023-03-23T07:27:02;17.50;45.10
3699;DHT22;1865;50.918;7.092;2023-03-23T07:29:28;17.40;44.80
3699;DHT22;1865;50.918;7.092;2023-03-23T07:31:53;17.40;44.90
3699;DHT22;1865;50.918;7.092;2023-03-23T07:34:19;17.40;45.20
3699;DHT22;1865;50.918;7.092;2023-03-23T07:36:45;17.40;44.60
3699;DHT22;1865;50.918;7.092;2023-03-23T07:39:12;17.50;44.30
3699;DHT22;1865;50.918;7.092;2023-03-23T07:41:38;17.30;44.50
3699;DHT22;1865;50.918;7.092;2023-03-23T07:44:04;17.40;44.30
3699;DHT22;1865;50.918;7.092;2023-03-23T07:46:30;17.50;44.50
3699;DHT22;1865;50.918;7.092;2023-03-23T07:48:55;17.60;43.60
3699;DHT22;1865;50.918;7.092;2023-03-23T07:51:22;17.70;43.50
3699;DHT22;1865;50.918;7.092;2023-03-23T07:53:48;17.60;43.00
3699;DHT22;1865;50.918;7.092;2023-03-23T07:56:14;17.70;43.10
3699;DHT22;1865;50.918;7.092;2023-03-23T07:58:45;17.70;43.30
3699;DHT22;1865;50.918;7.092;2023-03-23T08:01:11;17.70;42.70
3699;DHT22;1865;50.918;7.092;2023-03-23T08:03:37;17.70;43.40
3699;DHT22;1865;50.918;7.092;2023-03-23T08:06:03;17.80;42.70
3699;DHT22;1865;50.918;7.092;2023-03-23T08:08:29;17.90;42.60
3699;DHT22;1865;50.918;7.092;2023-03-23T08:10:55;17.90;42.30
3699;DHT22;1865;50.918;7.092;2023-03-23T08:13:21;17.90;42.20
3699;DHT22;1865;50.918;7.092;2023-03-23T08:15:46;17.90;42.60
3699;DHT22;1865;50.918;7.092;2023-03-23T08:18:12;17.90;42.30
3699;DHT22;1865;50.918;7.092;2023-03-23T08:20:38;17.90;42.00
3699;DHT22;1865;50.918;7.092;2023-03-23T08:23:03;17.90;42.40
3699;DHT22;1865;50.918;7.092;2023-03-23T08:25:30;17.90;41.50
3699;DHT22;1865;50.918;7.092;2023-03-23T08:28:00;17.90;42.00
3699;DHT22;1865;50.918;7.092;2023-03-23T08:30:29;18.00;41.30
3699;DHT22;1865;50.918;7.092;2023-03-23T08:32:56;18.00;41.80
3699;DHT22;1865;50.918;7.092;2023-03-23T08:35:22;18.00;41.70
3699;DHT22;1865;50.918;7.092;2023-03-23T08:37:49;18.00;41.60
3699;DHT22;1865;50.918;7.092;2023-03-23T08:40:17;17.90;40.90
3699;DHT22;1865;50.918;7.092;2023-03-23T08:42:45;18.00;41.60
3699;DHT22;1865;50.918;7.092;2023-03-23T08:45:13;18.20;41.10
3699;DHT22;1865;50.918;7.092;2023-03-23T08:47:40;18.20;40.50
3699;DHT22;1865;50.918;7.092;2023-03-23T08:50:07;18.10;40.70
3699;DHT22;1865;50.918;7.092;2023-03-23T08:52:34;18.20;40.70
3699;DHT22;1865;50.918;7.092;2023-03-23T08:54:59;18.20;40.70
3699;DHT22;1865;50.918;7.092;2023-03-23T08:57:25;18.20;40.20
3699;DHT22;1865;50.918;7.092;2023-03-23T08:59:52;18.20;40.50
3699;DHT22;1865;50.918;7.092;2023-03-23T09:02:19;18.30;40.40
3699;DHT22;1865;50.918;7.092;2023-03-23T09:04:45;18.40;39.80
3699;DHT22;1865;50.918;7.092;2023-03-23T09:07:12;18.30;40.70
3699;DHT22;1865;50.918;7.092;2023-03-23T09:09:40;18.40;40.70
3699;DHT22;1865;50.918;7.092;2023-03-23T09:12:06;18.50;40.60
3699;DHT22;1865;50.918;7.092;2023-03-23T09:14:34;18.60;40.10
3699;DHT22;1865;50.918;7.092;2023-03-23T09:17:00;18.30;40.30
3699;DHT22;1865;50.918;7.092;2023-03-23T09:19:26;18.30;40.20
3699;DHT22;1865;50.918;7.092;2023-03-23T09:21:51;18.30;40.40
3699;DHT22;1865;50.918;7.092;2023-03-23T09:24:17;18.30;40.20
3699;DHT22;1865;50.918;7.092;2023-03-23T09:26:44;18.30;40.30
3699;DHT22;1865;50.918;7.092;2023-03-23T09:29:10;18.40;40.00
3699;DHT22;1865;50.918;7.092;2023-03-23T09:31:36;18.60;39.60
3699;DHT22;1865;50.918;7.092;2023-03-23T09:34:02;18.70;39.40
3699;DHT22;1865;50.918;7.092;2023-03-23T09:36:29;18.70;39.30
3699;DHT22;1865;50.918;7.092;2023-03-23T09:38:57;18.80;39.30
3699;DHT22;1865;50.918;7.092;2023-03-23T09:49:50;18.70;38.60
3699;DHT22;1865;50.918;7.092;2023-03-23T09:52:19;18.60;38.70
3699;DHT22;1865;50.918;7.092;2023-03-23T09:54:53;18.60;37.90
3699;DHT22;1865;50.918;7.092;2023-03-23T09:57:30;18.30;37.90
3699;DHT22;1865;50.918;7.092;2023-03-23T10:00:14;18.40;38.40
3699;DHT22;1865;50.918;7.092;2023-03-23T10:07:49;18.40;37.10
3699;DHT22;1865;50.918;7.092;2023-03-23T10:10:14;18.50;37.60
3699;DHT22;1865;50.918;7.092;2023-03-23T10:15:20;18.60;38.40
3699;DHT22;1865;50.918;7.092;2023-03-23T10:17:57;18.70;37.70
3699;DHT22;1865;50.918;7.092;2023-03-23T10:20:42;18.70;38.00
3699;DHT22;1865;50.918;7.092;2023-03-23T10:28:20;19.00;38.80
3699;DHT22;1865;50.918;7.092;2023-03-23T10:30:55;19.20;38.40
3699;DHT22;1865;50.918;7.092;2023-03-23T10:33:26;19.20;38.80
3699;DHT22;1865;50.918;7.092;2023-03-23T10:38:49;18.90;40.20
3699;DHT22;1865;50.918;7.092;2023-03-23T10:41:17;18.90;40.40
3699;DHT22;1865;50.918;7.092;2023-03-23T10:43:45;18.80;40.70
3699;DHT22;1865;50.918;7.092;2023-03-23T10:49:18;18.50;42.10
3699;DHT22;1865;50.918;7.092;2023-03-23T10:51:51;18.50;42.10
3699;DHT22;1865;50.918;7.092;2023-03-23T10:54:39;18.30;42.50
3699;DHT22;1865;50.918;7.092;2023-03-23T10:57:22;18.20;43.40
3699;DHT22;1865;50.918;7.092;2023-03-23T10:59:49;18.30;43.10
3699;DHT22;1865;50.918;7.092;2023-03-23T11:02:17;18.40;43.40
3699;DHT22;1865;50.918;7.092;2023-03-23T11:04:56;18.50;43.10
3699;DHT22;1865;50.918;7.092;2023-03-23T11:07:28;18.60;43.10
3699;DHT22;1865;50.918;7.092;2023-03-23T11:09:57;18.50;43.10
3699;DHT22;1865;50.918;7.092;2023-03-23T11:12:24;18.60;43.60
3699;DHT22;1865;50.918;7.092;2023-03-23T11:14:50;18.70;43.10
3699;DHT22;1865;50.918;7.092;2023-03-23T11:17:24;19.00;42.70
3699;DHT22;1865;50.918;7.092;2023-03-23T11:19:51;19.10;42.30
3699;DHT22;1865;50.918;7.092;2023-03-23T11:24:58;19.20;41.70
3699;DHT22;1865;50.918;7.092;2023-03-23T11:27:25;19.30;42.10
3699;DHT22;1865;50.918;7.092;2023-03-23T11:29:59;19.60;41.50
3699;DHT22;1865;50.918;7.092;2023-03-23T11:32:28;19.50;41.10
3699;DHT22;1865;50.918;7.092;2023-03-23T11:34:58;19.30;41.50
3699;DHT22;1865;50.918;7.092;2023-03-23T11:37:43;19.20;41.70
3699;DHT22;1865;50.918;7.092;2023-03-23T11:45:25;19.00;41.70
3699;DHT22;1865;50.918;7.092;2023-03-23T11:51:16;19.10;42.20
3699;DHT22;1865;50.918;7.092;2023-03-23T11:54:04;19.10;41.70
3699;DHT22;1865;50.918;7.092;2023-03-23T11:56:36;18.90;42.60
3699;DHT22;1865;50.918;7.092;2023-03-23T11:59:08;18.80;44.60
3699;DHT22;1865;50.918;7.092;2023-03-23T12:01:53;18.90;44.80
3699;DHT22;1865;50.918;7.092;2023-03-23T12:04:45;18.90;44.40
3699;DHT22;1865;50.918;7.092;2023-03-23T12:12:59;18.70;44.00
3699;DHT22;1865;50.918;7.092;2023-03-23T12:15:41;18.70;43.70
3699;DHT22;1865;50.918;7.092;2023-03-23T12:23:56;18.90;42.20
3699;DHT22;1865;50.918;7.092;2023-03-23T12:26:27;19.10;42.10
3699;DHT22;1865;50.918;7.092;2023-03-23T12:29:15;19.30;42.10
3699;DHT22;1865;50.918;7.092;2023-03-23T12:48:56;19.10;40.50
3699;DHT22;1865;50.918;7.092;2023-03-23T12:51:30;18.90;40.60
3699;DHT22;1865;50.918;7.092;2023-03-23T12:54:18;18.80;41.40
3699;DHT22;1865;50.918;7.092;2023-03-23T12:56:51;19.00;41.50
3699;DHT22;1865;50.918;7.092;2023-03-23T13:01:51;19.10;40.90
3699;DHT22;1865;50.918;7.092;2023-03-23T13:04:22;19.10;40.70
3699;DHT22;1865;50.918;7.092;2023-03-23T13:06:49;19.10;40.40
3699;DHT22;1865;50.918;7.092;2023-03-23T13:09:30;19.10;40.70
3699;DHT22;1865;50.918;7.092;2023-03-23T13:11:59;19.20;40.50
3699;DHT22;1865;50.918;7.092;2023-03-23T13:17:46;19.10;40.50
3699;DHT22;1865;50.918;7.092;2023-03-23T13:23:20;19.20;40.90
3699;DHT22;1865;50.918;7.092;2023-03-23T13:28:30;19.20;40.40
3699;DHT22;1865;50.918;7.092;2023-03-23T13:31:02;19.10;40.40
3699;DHT22;1865;50.918;7.092;2023-03-23T13:33:31;19.00;40.70
3699;DHT22;1865;50.918;7.092;2023-03-23T13:36:02;19.10;41.10
3699;DHT22;1865;50.918;7.092;2023-03-23T13:38:31;19.10;40.70
3699;DHT22;1865;50.918;7.092;2023-03-23T13:40:57;19.10;40.60
3699;DHT22;1865;50.918;7.092;2023-03-23T13:43:30;19.20;40.30
3699;DHT22;1865;50.918;7.092;2023-03-23T13:46:11;18.90;40.60
3699;DHT22;1865;50.918;7.092;2023-03-23T13:48:46;19.10;41.50
3699;DHT22;1865;50.918;7.092;2023-03-23T13:51:26;19.20;40.90
3699;DHT22;1865;50.918;7.092;2023-03-23T13:54:46;19.20;40.90
3699;DHT22;1865;50.918;7.092;2023-03-23T14:01:55;19.50;40.90
3699;DHT22;1865;50.918;7.092;2023-03-23T14:04:23;19.60;39.90
3699;DHT22;1865;50.918;7.092;2023-03-23T14:06:57;19.70;39.90
3699;DHT22;1865;50.918;7.092;2023-03-23T14:09:36;19.60;40.00
3699;DHT22;1865;50.918;7.092;2023-03-23T14:12:05;19.50;40.00
3699;DHT22;1865;50.918;7.092;2023-03-23T14:14:41;19.50;40.50
3699;DHT22;1865;50.918;7.092;2023-03-23T14:17:23;19.50;39.80
3699;DHT22;1865;50.918;7.092;2023-03-23T14:19:52;19.50;40.20
3699;DHT22;1865;50.918;7.092;2023-03-23T14:22:35;19.40;39.90
3699;DHT22;1865;50.918;7.092;2023-03-23T14:25:13;19.40;39.80
3699;DHT22;1865;50.918;7.092;2023-03-23T14:27:40;19.40;40.10
3699;DHT22;1865;50.918;7.092;2023-03-23T14:30:17;19.30;40.30
3699;DHT22;1865;50.918;7.092;2023-03-23T14:32:44;19.40;40.30
3699;DHT22;1865;50.918;7.092;2023-03-23T14:35:17;19.40;40.30
3699;DHT22;1865;50.918;7.092;2023-03-23T14:37:45;19.50;40.30
3699;DHT22;1865;50.918;7.092;2023-03-23T14:40:15;19.40;40.00
3699;DHT22;1865;50.918;7.092;2023-03-23T14:42:41;19.40;39.90
3699;DHT22;1865;50.918;7.092;2023-03-23T14:45:16;19.30;40.10
3699;DHT22;1865;50.918;7.092;2023-03-23T14:48:00;19.20;40.20
3699;DHT22;1865;50.918;7.092;2023-03-23T14:50:36;19.40;40.00
3699;DHT22;1865;50.918;7.092;2023-03-23T14:53:15;19.20;40.10
3699;DHT22;1865;50.918;7.092;2023-03-23T14:55:43;19.20;40.20
3699;DHT22;1865;50.918;7.092;2023-03-23T14:58:13;19.20;39.90
3699;DHT22;1865;50.918;7.092;2023-03-23T15:00:43;19.10;39.70
3699;DHT22;1865;50.918;7.092;2023-03-23T15:03:14;19.00;40.20
3699;DHT22;1865;50.918;7.092;2023-03-23T15:05:46;19.00;45.40
3699;DHT22;1865;50.918;7.092;2023-03-23T15:08:18;18.90;45.80
3699;DHT22;1865;50.918;7.092;2023-03-23T15:13:55;19.00;45.50
3699;DHT22;1865;50.918;7.092;2023-03-23T15:16:27;19.10;44.60
3699;DHT22;1865;50.918;7.092;2023-03-23T15:19:04;19.10;44.50
3699;DHT22;1865;50.918;7.092;2023-03-23T15:21:35;19.10;43.70
3699;DHT22;1865;50.918;7.092;2023-03-23T15:24:38;19.10;42.60
3699;DHT22;1865;50.918;7.092;2023-03-23T15:27:14;19.40;41.60
3699;DHT22;1865;50.918;7.092;2023-03-23T15:30:27;19.60;42.00
3699;DHT22;1865;50.918;7.092;2023-03-23T15:33:14;19.80;40.30
3699;DHT22;1865;50.918;7.092;2023-03-23T15:35:49;20.20;39.50
3699;DHT22;1865;50.918;7.092;2023-03-23T15:40:50;20.10;38.30
3699;DHT22;1865;50.918;7.092;2023-03-23T15:43:22;20.10;39.00
3699;DHT22;1865;50.918;7.092;2023-03-23T15:48:48;20.40;38.60
3699;DHT22;1865;50.918;7.092;2023-03-23T15:51:15;20.40;37.80
3699;DHT22;1865;50.918;7.092;2023-03-23T15:53:42;20.50;37.10
3699;DHT22;1865;50.918;7.092;2023-03-23T15:56:09;20.40;36.40
3699;DHT22;1865;50.918;7.092;2023-03-23T15:58:36;20.50;36.80
3699;DHT22;1865;50.918;7.092;2023-03-23T16:01:07;20.40;36.70
3699;DHT22;1865;50.918;7.092;2023-03-23T16:03:51;20.20;37.20
3699;DHT22;1865;50.918;7.092;2023-03-23T16:06:19;20.40;36.90
3699;DHT22;1865;50.918;7.092;2023-03-23T16:08:45;20.50;36.00
3699;DHT22;1865;50.918;7.092;2023-03-23T16:11:13;20.50;36.60
3699;DHT22;1865;50.918;7.092;2023-03-23T16:13:39;20.50;36.00
3699;DHT22;1865;50.918;7.092;2023-03-23T16:16:06;20.50;36.40
3699;DHT22;1865;50.918;7.092;2023-03-23T16:18:36;20.50;36.70
3699;DHT22;1865;50.918;7.092;2023-03-23T16:21:01;20.50;36.20
3699;DHT22;1865;50.918;7.092;2023-03-23T16:23:28;20.30;36.10
3699;DHT22;1865;50.918;7.092;2023-03-23T16:25:53;20.10;36.20
3699;DHT22;1865;50.918;7.092;2023-03-23T16:28:19;20.10;36.30
3699;DHT22;1865;50.918;7.092;2023-03-23T16:30:45;20.00;36.60
3699;DHT22;1865;50.918;7.092;2023-03-23T16:33:11;20.10;36.40
3699;DHT22;1865;50.918;7.092;2023-03-23T16:35:37;19.90;36.30
3699;DHT22;1865;50.918;7.092;2023-03-23T16:38:03;19.80;36.40
3699;DHT22;1865;50.918;7.092;2023-03-23T16:40:28;19.90;36.30
3699;DHT22;1865;50.918;7.092;2023-03-23T16:42:54;20.00;36.60
3699;DHT22;1865;50.918;7.092;2023-03-23T16:45:20;20.10;36.60
3699;DHT22;1865;50.918;7.092;2023-03-23T16:47:45;19.80;35.90
3699;DHT22;1865;50.918;7.092;2023-03-23T16:50:13;19.80;36.30
3699;DHT22;1865;50.918;7.092;2023-03-23T16:52:40;19.70;36.50
3699;DHT22;1865;50.918;7.092;2023-03-23T16:55:07;19.80;36.40
3699;DHT22;1865;50.918;7.092;2023-03-23T16:57:33;19.80;35.50
3699;DHT22;1865;50.918;7.092;2023-03-23T17:00:03;19.70;36.20
3699;DHT22;1865;50.918;7.092;2023-03-23T17:02:30;19.70;35.90
3699;DHT22;1865;50.918;7.092;2023-03-23T17:04:55;19.70;36.10
3699;DHT22;1865;50.918;7.092;2023-03-23T17:07:22;19.70;36.30
3699;DHT22;1865;50.918;7.092;2023-03-23T17:09:48;19.60;35.80
3699;DHT22;1865;50.918;7.092;2023-03-23T17:12:13;19.60;36.30
3699;DHT22;1865;50.918;7.092;2023-03-23T17:14:39;19.60;36.20
3699;DHT22;1865;50.918;7.092;2023-03-23T17:17:05;19.50;36.40
3699;DHT22;1865;50.918;7.092;2023-03-23T17:19:30;19.50;36.50
3699;DHT22;1865;50.918;7.092;2023-03-23T17:21:56;19.40;36.60
3699;DHT22;1865;50.918;7.092;2023-03-23T17:24:21;19.50;36.80
3699;DHT22;1865;50.918;7.092;2023-03-23T17:26:47;19.50;36.80
3699;DHT22;1865;50.918;7.092;2023-03-23T17:29:12;19.40;36.70
3699;DHT22;1865;50.918;7.092;2023-03-23T17:31:38;19.30;36.50
3699;DHT22;1865;50.918;7.092;2023-03-23T17:34:05;19.20;37.60
3699;DHT22;1865;50.918;7.092;2023-03-23T17:36:31;19.10;36.90
3699;DHT22;1865;50.918;7.092;2023-03-23T17:38:57;18.90;37.00
3699;DHT22;1865;50.918;7.092;2023-03-23T17:41:22;18.90;37.10
3699;DHT22;1865;50.918;7.092;2023-03-23T17:43:48;18.90;37.50
3699;DHT22;1865;50.918;7.092;2023-03-23T17:46:14;18.70;37.80
3699;DHT22;1865;50.918;7.092;2023-03-23T17:48:39;18.80;37.80
3699;DHT22;1865;50.918;7.092;2023-03-23T17:51:06;18.80;37.80
3699;DHT22;1865;50.918;7.092;2023-03-23T17:53:32;18.80;37.80
3699;DHT22;1865;50.918;7.092;2023-03-23T17:56:00;18.80;38.00
3699;DHT22;1865;50.918;7.092;2023-03-23T17:58:26;18.80;38.00
3699;DHT22;1865;50.918;7.092;2023-03-23T18:00:52;18.80;38.10